Time;durP1;ratioP1;P1;durP2;ratioP2;P2;SDS_P1;SDS_P2;PMS_P1;PMS_P2;Temp;Humidity;BMP_temperature;BMP_pressure;BME280_temperature;BME280_humidity;BME280_pressure;Samples;Min_cycle;Max_cycle;Signal;HPM_P1;HPM_P2
2023/01/01 00:00:37;;;;;;;424.52;239.18;;;;;;;;;;5053981;28;20037;-81
2023/01/01 00:03:22;;;;;;;405.50;209.57;;;;;;;;;;5075785;28;20053;-80
2023/01/01 00:06:10;;;;;;;368.88;181.43;;;;;;;;;;5055940;28;20036;-80
2023/01/01 00:11:59;;;;;;;286.13;144.32;;;;;;;;;;5057319;28;20044;-80
2023/01/01 00:14:45;;;;;;;258.13;130.93;;;;;;;;;;5056700;28;20393;-80
2023/01/01 00:17:30;;;;;;;235.80;118.50;;;;;;;;;;5062016;28;20080;-80
2023/01/01 00:20:16;;;;;;;217.98;113.55;;;;;;;;;;5054250;28;20474;-80
2023/01/01 00:23:02;;;;;;;231.45;117.38;;;;;;;;;;5055314;28;20049;-79
2023/01/01 00:25:48;;;;;;;206.77;105.43;;;;;;;;;;5054187;28;20041;-80
2023/01/01 00:28:33;;;;;;;208.95;105.25;;;;;;;;;;5055427;28;20041;-80
2023/01/01 00:31:20;;;;;;;223.13;114.20;;;;;;;;;;5063222;28;20049;-80
2023/01/01 00:34:11;;;;;;;382.60;190.18;;;;;;;;;;5066095;28;20036;-80
2023/01/01 00:36:58;;;;;;;331.75;165.10;;;;;;;;;;5072914;28;20049;-83
2023/01/01 00:39:45;;;;;;;320.90;159.98;;;;;;;;;;5077636;28;20049;-80
2023/01/01 00:42:30;;;;;;;309.45;154.43;;;;;;;;;;5073512;28;20044;-79
2023/01/01 00:45:16;;;;;;;352.52;168.18;;;;;;;;;;5053825;28;20474;-80
2023/01/01 00:48:01;;;;;;;386.67;210.80;;;;;;;;;;5069350;28;20041;-80
2023/01/01 00:50:48;;;;;;;398.85;213.30;;;;;;;;;;5071112;28;20029;-80
2023/01/01 00:53:33;;;;;;;399.25;217.32;;;;;;;;;;5062939;28;20057;-80
2023/01/01 00:56:20;;;;;;;391.85;210.73;;;;;;;;;;5059140;28;20037;-80
2023/01/01 00:59:09;;;;;;;434.67;227.13;;;;;;;;;;5060210;28;20049;-80
2023/01/01 01:01:53;;;;;;;429.70;212.88;;;;;;;;;;5067319;28;20045;-80
2023/01/01 01:04:39;;;;;;;348.40;164.43;;;;;;;;;;5054875;28;20040;-86
2023/01/01 01:07:23;;;;;;;351.65;167.30;;;;;;;;;;5052074;28;20049;-87
2023/01/01 01:10:11;;;;;;;335.45;164.63;;;;;;;;;;5072888;28;20045;-86
2023/01/01 01:12:56;;;;;;;295.42;151.30;;;;;;;;;;5074618;28;20048;-84
2023/01/01 01:15:42;;;;;;;303.10;154.90;;;;;;;;;;5053117;28;20049;-84
2023/01/01 01:18:27;;;;;;;290.88;149.80;;;;;;;;;;5045168;28;20478;-82
2023/01/01 01:21:17;;;;;;;296.23;147.48;;;;;;;;;;5072613;28;20048;-87
2023/01/01 01:24:03;;;;;;;276.70;140.68;;;;;;;;;;5053105;28;20045;-82
2023/01/01 01:26:48;;;;;;;288.67;147.52;;;;;;;;;;5047235;28;20053;-87
2023/01/01 01:29:33;;;;;;;328.77;175.77;;;;;;;;;;5062568;28;20045;-87
2023/01/01 01:32:19;;;;;;;348.98;179.55;;;;;;;;;;5062534;28;20040;-83
2023/01/01 01:35:05;;;;;;;339.75;176.50;;;;;;;;;;5055674;28;20478;-82
2023/01/01 01:37:50;;;;;;;319.48;162.60;;;;;;;;;;5062166;28;20048;-87
2023/01/01 01:40:35;;;;;;;322.83;164.82;;;;;;;;;;5076677;28;20037;-82
2023/01/01 01:43:24;;;;;;;336.10;170.05;;;;;;;;;;5056735;28;20049;-82
2023/01/01 01:46:20;;;;;;;338.15;167.55;;;;;;;;;;5056759;28;20044;-82
2023/01/01 01:49:32;;;;;;;331.60;171.45;;;;;;;;;;5056743;28;20044;-82
2023/01/01 01:52:17;;;;;;;323.17;165.60;;;;;;;;;;5076077;28;20049;-87
2023/01/01 01:55:11;;;;;;;341.42;177.73;;;;;;;;;;5069987;28;20053;-88
2023/01/01 01:57:56;;;;;;;356.95;183.20;;;;;;;;;;5076105;28;20040;-87
2023/01/01 02:00:42;;;;;;;325.75;178.27;;;;;;;;;;5060100;28;20041;-87
2023/01/01 02:03:39;;;;;;;280.50;146.98;;;;;;;;;;5061100;28;20048;-87
2023/01/01 02:06:26;;;;;;;293.50;154.13;;;;;;;;;;5056254;28;20044;-87
2023/01/01 02:09:12;;;;;;;299.20;153.13;;;;;;;;;;5056340;28;20103;-87
2023/01/01 02:11:58;;;;;;;323.70;166.95;;;;;;;;;;5055978;28;20044;-82
2023/01/01 02:14:43;;;;;;;388.58;218.20;;;;;;;;;;5061412;28;20045;-82
2023/01/01 02:17:36;;;;;;;313.48;160.23;;;;;;;;;;5061852;28;20041;-79
2023/01/01 02:20:36;;;;;;;289.02;149.40;;;;;;;;;;5076421;28;20033;-84
2023/01/01 02:23:33;;;;;;;247.93;124.95;;;;;;;;;;5056992;28;20041;-85
2023/01/01 02:26:37;;;;;;;251.63;129.45;;;;;;;;;;5075631;28;20041;-84
2023/01/01 02:29:32;;;;;;;238.95;123.28;;;;;;;;;;5055770;28;20036;-85
2023/01/01 02:32:33;;;;;;;262.58;129.82;;;;;;;;;;5055970;28;20494;-84
2023/01/01 02:35:35;;;;;;;252.07;121.40;;;;;;;;;;5068632;28;20040;-85
2023/01/01 02:38:27;;;;;;;249.57;131.88;;;;;;;;;;5054091;28;20045;-84
2023/01/01 02:41:24;;;;;;;271.48;133.32;;;;;;;;;;5055893;28;20037;-84
2023/01/01 02:44:11;;;;;;;274.92;141.27;;;;;;;;;;5075136;28;20052;-84
2023/01/01 02:47:09;;;;;;;281.90;143.65;;;;;;;;;;5075253;28;20048;-83
2023/01/01 02:50:02;;;;;;;277.75;145.05;;;;;;;;;;5076069;28;20045;-83
2023/01/01 02:53:32;;;;;;;280.63;144.27;;;;;;;;;;5055618;28;20049;-87
2023/01/01 02:56:30;;;;;;;257.95;132.50;;;;;;;;;;5040512;28;20057;-85
2023/01/01 03:03:26;;;;;;;268.70;136.80;;;;;;;;;;5054330;28;20041;-85
2023/01/01 03:06:28;;;;;;;279.02;135.73;;;;;;;;;;5053026;28;20477;-84
2023/01/01 03:09:31;;;;;;;282.17;137.82;;;;;;;;;;5058975;28;20045;-87
2023/01/01 03:12:42;;;;;;;278.77;138.95;;;;;;;;;;5052932;28;20049;-86
2023/01/01 03:15:55;;;;;;;252.82;126.72;;;;;;;;;;5066440;28;20041;-86
2023/01/01 03:19:09;;;;;;;244.57;124.70;;;;;;;;;;5052089;28;20049;-84
2023/01/01 03:22:06;;;;;;;246.85;122.40;;;;;;;;;;5072906;28;20037;-86
2023/01/01 03:24:57;;;;;;;232.88;118.53;;;;;;;;;;5053859;28;20049;-86
2023/01/01 03:27:47;;;;;;;245.95;118.47;;;;;;;;;;5073088;28;20037;-85
2023/01/01 03:30:36;;;;;;;266.95;133.43;;;;;;;;;;5053164;28;20036;-85
2023/01/01 03:33:31;;;;;;;277.70;141.70;;;;;;;;;;5052890;28;20052;-87
2023/01/01 03:36:32;;;;;;;287.70;148.05;;;;;;;;;;5060439;28;20056;-85
2023/01/01 03:39:35;;;;;;;320.05;167.73;;;;;;;;;;5067811;28;20037;-87
2023/01/01 03:42:38;;;;;;;312.60;150.25;;;;;;;;;;5046521;28;20045;-86
2023/01/01 03:45:29;;;;;;;279.98;140.73;;;;;;;;;;5054881;28;20422;-86
2023/01/01 03:48:15;;;;;;;254.52;122.70;;;;;;;;;;5053910;28;20052;-86
2023/01/01 03:51:08;;;;;;;317.40;125.32;;;;;;;;;;5073847;28;20037;-86
2023/01/01 03:53:58;;;;;;;303.10;134.65;;;;;;;;;;5054135;28;20053;-85
2023/01/01 03:56:48;;;;;;;282.60;121.55;;;;;;;;;;5067250;28;20044;-85
2023/01/01 03:59:57;;;;;;;249.57;116.45;;;;;;;;;;5054619;28;20393;-84
2023/01/01 04:02:58;;;;;;;269.05;114.25;;;;;;;;;;5054521;28;20045;-85
2023/01/01 04:05:44;;;;;;;264.17;120.32;;;;;;;;;;5074153;28;20048;-87
2023/01/01 04:08:33;;;;;;;245.75;121.93;;;;;;;;;;5060467;28;20486;-85
2023/01/01 04:14:45;;;;;;;300.95;137.63;;;;;;;;;;5073752;28;20048;-86
2023/01/01 04:17:36;;;;;;;275.92;130.18;;;;;;;;;;5060084;28;20498;-86
2023/01/01 04:20:23;;;;;;;301.83;142.40;;;;;;;;;;5053635;28;20380;-87
2023/01/01 04:23:08;;;;;;;238.38;115.38;;;;;;;;;;5067315;28;20041;-85
2023/01/01 04:25:54;;;;;;;238.02;116.03;;;;;;;;;;5054316;28;20049;-84
2023/01/01 04:28:40;;;;;;;249.63;122.60;;;;;;;;;;5054843;28;20048;-85
2023/01/01 04:31:26;;;;;;;238.38;112.18;;;;;;;;;;5066620;28;20037;-86
2023/01/01 04:34:11;;;;;;;218.73;109.43;;;;;;;;;;5054152;28;20053;-86
2023/01/01 04:36:59;;;;;;;233.93;110.70;;;;;;;;;;5054135;28;20037;-86
2023/01/01 04:39:45;;;;;;;221.95;111.95;;;;;;;;;;5059713;28;20049;-85
2023/01/01 04:42:35;;;;;;;239.68;118.68;;;;;;;;;;5058940;28;20028;-86
2023/01/01 04:45:20;;;;;;;231.18;111.50;;;;;;;;;;5045206;28;20048;-85
2023/01/01 04:48:06;;;;;;;225.05;109.82;;;;;;;;;;5052575;28;20037;-84
2023/01/01 04:51:12;;;;;;;224.15;110.60;;;;;;;;;;5053660;28;20040;-86
2023/01/01 04:53:59;;;;;;;231.90;113.22;;;;;;;;;;5066243;28;20049;-85
2023/01/01 04:56:44;;;;;;;214.55;107.93;;;;;;;;;;5053392;28;20486;-86
2023/01/01 04:59:30;;;;;;;215.98;103.60;;;;;;;;;;5053379;28;20483;-85
2023/01/01 05:02:16;;;;;;;214.98;98.07;;;;;;;;;;5057388;28;20037;-84
2023/01/01 05:05:07;;;;;;;202.98;92.75;;;;;;;;;;5057837;28;20036;-89
2023/01/01 05:07:53;;;;;;;213.90;100.50;;;;;;;;;;5049359;28;20045;-88
2023/01/01 05:10:39;;;;;;;228.02;112.60;;;;;;;;;;5057620;28;20040;-87
2023/01/01 05:13:24;;;;;;;227.38;110.93;;;;;;;;;;5077392;28;20049;-86
2023/01/01 05:16:12;;;;;;;250.02;122.47;;;;;;;;;;5070612;28;20368;-86
2023/01/01 05:18:57;;;;;;;238.75;117.03;;;;;;;;;;5056185;28;20045;-87
2023/01/01 05:21:44;;;;;;;246.23;120.40;;;;;;;;;;5076805;28;20033;-88
2023/01/01 05:24:35;;;;;;;256.00;119.13;;;;;;;;;;5070060;28;20044;-88
2023/01/01 05:27:20;;;;;;;218.18;109.78;;;;;;;;;;5057329;28;20041;-87
2023/01/01 05:30:06;;;;;;;272.23;104.45;;;;;;;;;;5076975;28;20474;-88
2023/01/01 05:32:51;;;;;;;229.30;96.18;;;;;;;;;;5076872;28;20486;-86
2023/01/01 05:35:36;;;;;;;247.50;102.43;;;;;;;;;;5048568;28;20041;-86
2023/01/01 05:38:21;;;;;;;259.92;103.07;;;;;;;;;;5076706;28;20045;-86
2023/01/01 05:41:08;;;;;;;232.80;96.80;;;;;;;;;;5057102;28;20041;-88
2023/01/01 05:43:54;;;;;;;205.48;90.40;;;;;;;;;;5056786;28;20049;-86
2023/01/01 05:46:40;;;;;;;195.18;89.47;;;;;;;;;;5076503;28;20045;-86
2023/01/01 05:49:25;;;;;;;222.82;87.55;;;;;;;;;;5076297;28;20037;-86
2023/01/01 05:52:11;;;;;;;229.00;90.70;;;;;;;;;;5056646;28;20478;-88
2023/01/01 05:54:57;;;;;;;219.13;84.50;;;;;;;;;;5069585;28;20048;-86
2023/01/01 05:57:42;;;;;;;232.10;89.25;;;;;;;;;;5056880;28;20486;-86
2023/01/01 06:00:28;;;;;;;215.40;93.20;;;;;;;;;;5056376;28;20368;-86
2023/01/01 06:03:13;;;;;;;220.40;91.85;;;;;;;;;;5056697;28;20049;-86
2023/01/01 06:06:03;;;;;;;223.02;91.82;;;;;;;;;;5055313;28;20049;-88
2023/01/01 06:08:51;;;;;;;243.18;108.80;;;;;;;;;;5055348;28;20371;-86
2023/01/01 06:11:36;;;;;;;234.45;95.25;;;;;;;;;;5075672;28;20494;-86
2023/01/01 06:14:21;;;;;;;213.85;90.30;;;;;;;;;;5075605;28;20044;-88
2023/01/01 06:17:07;;;;;;;248.32;95.55;;;;;;;;;;5056374;28;20084;-89
2023/01/01 06:19:52;;;;;;;189.60;88.30;;;;;;;;;;5075929;28;20044;-88
2023/01/01 06:22:40;;;;;;;198.57;88.18;;;;;;;;;;5055850;28;20036;-88
2023/01/01 06:25:25;;;;;;;228.90;96.40;;;;;;;;;;5056054;28;20497;-87
2023/01/01 06:28:14;;;;;;;232.90;103.63;;;;;;;;;;5047902;28;20049;-88
2023/01/01 06:31:04;;;;;;;227.95;103.22;;;;;;;;;;5055756;28;20036;-89
2023/01/01 06:33:50;;;;;;;253.18;102.30;;;;;;;;;;5055901;28;20049;-89
2023/01/01 06:36:36;;;;;;;211.38;81.60;;;;;;;;;;5056016;28;20049;-88
2023/01/01 06:39:21;;;;;;;193.93;85.95;;;;;;;;;;5075611;28;20037;-87
2023/01/01 06:42:06;;;;;;;220.77;93.63;;;;;;;;;;5075478;28;20478;-88
2023/01/01 06:44:52;;;;;;;210.95;89.57;;;;;;;;;;5061218;28;20041;-87
2023/01/01 06:47:37;;;;;;;195.27;86.57;;;;;;;;;;5055857;28;20048;-88
2023/01/01 06:50:26;;;;;;;198.00;83.57;;;;;;;;;;5062084;28;20049;-88
2023/01/01 06:53:12;;;;;;;181.75;83.88;;;;;;;;;;5049096;28;20049;-87
2023/01/01 06:55:58;;;;;;;222.20;88.65;;;;;;;;;;5055372;28;20045;-87
2023/01/01 06:58:43;;;;;;;288.35;113.60;;;;;;;;;;5054753;28;20045;-87
2023/01/01 07:01:31;;;;;;;306.08;121.97;;;;;;;;;;5068646;28;20394;-88
2023/01/01 07:04:16;;;;;;;377.05;130.05;;;;;;;;;;5074955;28;20045;-87
2023/01/01 07:07:05;;;;;;;407.80;134.55;;;;;;;;;;5076633;28;20041;-89
2023/01/01 07:09:50;;;;;;;362.52;128.55;;;;;;;;;;5075468;28;20475;-87
2023/01/01 07:12:36;;;;;;;277.65;113.30;;;;;;;;;;5060715;28;20041;-87
2023/01/01 07:15:23;;;;;;;283.73;108.82;;;;;;;;;;5054335;28;20045;-86
2023/01/01 07:18:08;;;;;;;291.23;118.13;;;;;;;;;;5075028;28;20438;-88
2023/01/01 07:20:56;;;;;;;302.95;125.45;;;;;;;;;;5067827;28;20041;-88
2023/01/01 07:23:41;;;;;;;336.60;115.20;;;;;;;;;;5074595;28;20053;-88
2023/01/01 07:26:30;;;;;;;327.73;115.28;;;;;;;;;;5054245;28;20048;-89
2023/01/01 07:29:15;;;;;;;280.08;103.47;;;;;;;;;;5053815;28;20041;-86
2023/01/01 07:32:01;;;;;;;299.60;104.10;;;;;;;;;;5054420;28;20044;-86
2023/01/01 07:34:46;;;;;;;318.33;107.28;;;;;;;;;;5060357;28;20045;-86
2023/01/01 07:37:32;;;;;;;322.15;113.97;;;;;;;;;;5067673;28;20037;-86
2023/01/01 07:40:16;;;;;;;312.17;114.85;;;;;;;;;;5053710;28;20037;-86
2023/01/01 07:43:01;;;;;;;317.67;125.72;;;;;;;;;;5068046;28;20375;-88
2023/01/01 07:45:49;;;;;;;356.23;132.77;;;;;;;;;;5053443;28;20046;-89
2023/01/01 07:48:35;;;;;;;343.35;129.55;;;;;;;;;;5074136;28;20053;-88
2023/01/01 07:51:20;;;;;;;296.02;131.73;;;;;;;;;;5053578;28;20376;-88
2023/01/01 07:54:06;;;;;;;332.67;121.03;;;;;;;;;;5070662;28;20049;-87
2023/01/01 07:56:59;;;;;;;288.67;115.97;;;;;;;;;;5060166;28;20041;-86
2023/01/01 07:59:47;;;;;;;321.95;130.82;;;;;;;;;;5066864;28;20045;-88
2023/01/01 08:02:58;;;;;;;352.15;139.57;;;;;;;;;;5046542;28;20475;-87
2023/01/01 08:05:48;;;;;;;318.75;139.50;;;;;;;;;;5073318;28;20045;-86
2023/01/01 08:08:43;;;;;;;376.58;159.77;;;;;;;;;;5052845;28;20498;-87
2023/01/01 08:11:34;;;;;;;345.33;155.55;;;;;;;;;;5045979;28;20475;-87
2023/01/01 08:14:20;;;;;;;342.83;158.98;;;;;;;;;;5053416;28;20041;-86
2023/01/01 08:17:44;;;;;;;330.92;159.00;;;;;;;;;;5053505;28;20044;-87
2023/01/01 08:20:34;;;;;;;344.63;156.25;;;;;;;;;;5073022;28;20040;-86
2023/01/01 08:23:36;;;;;;;;;;;;;;;;;;;;;
2023/01/01 08:26:58;;;;;;;326.58;155.57;;;;;;;;;;5052442;28;20041;-87
2023/01/01 08:30:37;;;;;;;;;;;;;;;;;;;;;
2023/01/01 08:34:16;;;;;;;290.50;151.38;;;;;;;;;;5073445;28;20049;-87
2023/01/01 08:38:05;;;;;;;264.80;134.38;;;;;;;;;;5052193;28;20502;-87
2023/01/01 08:41:58;;;;;;;314.30;156.40;;;;;;;;;;5067763;28;20053;-89
2023/01/01 08:45:04;;;;;;;;;;;;;;;;;;;;;
2023/01/01 08:48:43;;;;;;;318.90;169.35;;;;;;;;;;5073220;28;20045;-90
2023/01/01 08:52:15;;;;;;;316.13;171.82;;;;;;;;;;5058568;28;20049;-87
2023/01/01 08:55:56;;;;;;;326.17;181.18;;;;;;;;;;5059019;28;20046;-87
2023/01/01 08:59:25;;;;;;;;;;;;;;;;;;;;;
2023/01/01 09:02:14;;;;;;;295.83;166.70;;;;;;;;;;5033105;28;20042;-88
2023/01/01 09:05:04;;;;;;;258.20;148.68;;;;;;;;;;5059073;28;20040;-88
2023/01/01 09:07:52;;;;;;;237.75;135.90;;;;;;;;;;5064770;28;20064;-87
2023/01/01 09:10:47;;;;;;;225.02;127.93;;;;;;;;;;5062436;28;20045;-89
2023/01/01 09:13:33;;;;;;;217.18;121.63;;;;;;;;;;5060669;28;20040;-86
2023/01/01 09:16:27;;;;;;;198.77;113.55;;;;;;;;;;5048997;28;20048;-90
2023/01/01 09:19:13;;;;;;;181.70;107.80;;;;;;;;;;5054327;28;20040;-87
2023/01/01 09:22:04;;;;;;;185.68;102.38;;;;;;;;;;5058818;28;20041;-87
2023/01/01 09:25:04;;;;;;;;;;;;;;;;;;;;;
2023/01/01 09:28:49;;;;;;;;;;;;;;;;;;;;;
2023/01/01 09:32:22;;;;;;;;;;;;;;;;;;;;;
2023/01/01 09:35:54;;;;;;;;;;;;;;;;;;;;;
2023/01/01 09:43:28;;;;;;;;;;;;;;;;;;;;;
2023/01/01 10:04:06;;;;;;;;;;;;;;;;;;;;;
2023/01/01 10:11:55;;;;;;;140.68;78.35;;;;;;;;;;4866405;29;19916;-90
2023/01/01 10:15:23;;;;;;;133.32;69.80;;;;;;;;;;4861876;29;20437;-87
2023/01/01 10:18:22;;;;;;;145.97;77.90;;;;;;;;;;4970874;28;20491;-79
2023/01/01 10:21:10;;;;;;;155.13;80.45;;;;;;;;;;5020712;28;20278;-79
2023/01/01 10:24:01;;;;;;;150.75;81.55;;;;;;;;;;5055876;28;20044;-80
2023/01/01 10:26:48;;;;;;;152.75;85.15;;;;;;;;;;5056190;28;20037;-76
2023/01/01 10:29:36;;;;;;;148.93;84.57;;;;;;;;;;5055772;28;20494;-78
2023/01/01 10:32:34;;;;;;;185.45;101.15;;;;;;;;;;5055632;28;20036;-78
2023/01/01 10:35:33;;;;;;;167.10;97.53;;;;;;;;;;5055772;28;20041;-78
2023/01/01 10:38:27;;;;;;;207.50;117.05;;;;;;;;;;5055733;28;20040;-78
2023/01/01 10:41:13;;;;;;;226.13;127.50;;;;;;;;;;5055540;28;20049;-79
2023/01/01 10:43:58;;;;;;;161.13;95.10;;;;;;;;;;5055535;28;20053;-79
2023/01/01 10:46:49;;;;;;;157.68;92.38;;;;;;;;;;5062496;28;20040;-79
2023/01/01 10:49:54;;;;;;;175.60;102.70;;;;;;;;;;5055401;28;20049;-79
2023/01/01 10:52:55;;;;;;;113.32;63.15;;;;;;;;;;5055014;28;20045;-81
2023/01/01 10:55:41;;;;;;;56.05;35.20;;;;;;;;;;5054880;28;20049;-78
2023/01/01 10:58:54;;;;;;;100.22;57.65;;;;;;;;;;5054833;28;20489;-79
2023/01/01 11:01:40;;;;;;;109.28;69.95;;;;;;;;;;5055340;28;20044;-79
2023/01/01 11:04:25;;;;;;;101.65;61.58;;;;;;;;;;5055152;28;20049;-79
2023/01/01 11:07:17;;;;;;;110.07;62.85;;;;;;;;;;5055192;28;20045;-78
2023/01/01 11:10:05;;;;;;;91.95;53.38;;;;;;;;;;5054564;28;20045;-80
2023/01/01 11:12:53;;;;;;;89.40;52.50;;;;;;;;;;5054780;28;20482;-79
2023/01/01 11:15:40;;;;;;;85.38;47.80;;;;;;;;;;5055073;28;20045;-79
2023/01/01 11:18:34;;;;;;;79.20;45.17;;;;;;;;;;5054979;28;20049;-79
2023/01/01 11:21:22;;;;;;;85.15;51.78;;;;;;;;;;5055123;28;20391;-78
2023/01/01 11:24:20;;;;;;;62.53;36.47;;;;;;;;;;5054403;28;20350;-78
2023/01/01 11:27:25;;;;;;;73.95;45.72;;;;;;;;;;5054713;28;20037;-82
2023/01/01 11:30:27;;;;;;;69.47;40.97;;;;;;;;;;5054715;28;20482;-80
2023/01/01 11:33:16;;;;;;;68.10;41.13;;;;;;;;;;5054428;28;20041;-80
2023/01/01 11:36:03;;;;;;;64.68;35.28;;;;;;;;;;5054068;28;20387;-80
2023/01/01 11:39:02;;;;;;;59.40;35.28;;;;;;;;;;5054465;28;20045;-79
2023/01/01 11:41:50;;;;;;;55.47;33.60;;;;;;;;;;5061279;28;20041;-83
2023/01/01 11:44:46;;;;;;;52.45;32.72;;;;;;;;;;5074005;28;20490;-79
2023/01/01 11:47:39;;;;;;;46.15;25.83;;;;;;;;;;5054204;28;20044;-84
2023/01/01 11:50:32;;;;;;;45.10;26.50;;;;;;;;;;5054286;28;20045;-79
2023/01/01 11:53:23;;;;;;;38.03;24.65;;;;;;;;;;5053798;28;20049;-81
2023/01/01 11:56:16;;;;;;;44.97;30.35;;;;;;;;;;5053911;28;20045;-80
2023/01/01 11:59:15;;;;;;;50.50;31.88;;;;;;;;;;5054090;28;20041;-80
2023/01/01 12:02:03;;;;;;;37.53;25.33;;;;;;;;;;5059752;28;20033;-81
2023/01/01 12:05:08;;;;;;;77.10;49.40;;;;;;;;;;5054220;28;20041;-81
2023/01/01 12:07:59;;;;;;;45.60;30.30;;;;;;;;;;5060566;28;20474;-83
2023/01/01 12:11:22;;;;;;;46.65;29.15;;;;;;;;;;5058738;28;20045;-80
2023/01/01 12:14:35;;;;;;;46.50;24.25;;;;;;;;;;5037278;28;20052;-80
2023/01/01 12:17:23;;;;;;;35.92;23.05;;;;;;;;;;5052949;28;20049;-81
2023/01/01 12:20:30;;;;;;;52.70;30.73;;;;;;;;;;5060544;28;20486;-82
2023/01/01 12:23:18;;;;;;;46.75;28.38;;;;;;;;;;5052503;28;20037;-80
2023/01/01 12:26:25;;;;;;;48.50;27.42;;;;;;;;;;5065795;28;20386;-81
2023/01/01 12:29:30;;;;;;;62.03;31.50;;;;;;;;;;5058309;28;20057;-80
2023/01/01 12:32:46;;;;;;;50.13;30.45;;;;;;;;;;5051634;28;20041;-82
2023/01/01 12:35:53;;;;;;;55.45;34.60;;;;;;;;;;5053632;28;20045;-81
2023/01/01 12:39:03;;;;;;;55.13;33.47;;;;;;;;;;5053766;28;20482;-81
2023/01/01 12:42:28;;;;;;;52.47;33.90;;;;;;;;;;5060698;28;20033;-81
2023/01/01 12:45:50;;;;;;;55.88;36.63;;;;;;;;;;5053550;28;20486;-81
2023/01/01 12:49:06;;;;;;;54.72;31.95;;;;;;;;;;5053661;28;20052;-80
2023/01/01 12:52:13;;;;;;;44.67;27.25;;;;;;;;;;5073146;28;20037;-81
2023/01/01 12:55:23;;;;;;;45.30;28.00;;;;;;;;;;5053572;28;20053;-80
2023/01/01 12:58:18;;;;;;;39.42;26.23;;;;;;;;;;5053725;28;20049;-80
2023/01/01 13:01:26;;;;;;;;;;;;;;;;;;5054257;28;20044;-80
2023/01/01 13:04:14;;;;;;;42.38;26.33;;;;;;;;;;5053633;28;19913;-80
2023/01/01 13:07:03;;;;;;;40.80;25.95;;;;;;;;;;5053452;28;20040;-78
2023/01/01 13:09:48;;;;;;;50.20;28.17;;;;;;;;;;5053195;28;20048;-78
2023/01/01 13:12:36;;;;;;;46.20;28.88;;;;;;;;;;5053279;28;20045;-78
2023/01/01 13:15:42;;;;;;;46.83;28.35;;;;;;;;;;5053190;28;20502;-79
2023/01/01 13:18:32;;;;;;;55.15;30.65;;;;;;;;;;5053697;28;20045;-78
2023/01/01 13:21:24;;;;;;;50.00;31.77;;;;;;;;;;5066286;28;20052;-79
2023/01/01 13:24:20;;;;;;;52.90;33.83;;;;;;;;;;5057115;28;20049;-79
2023/01/01 13:27:09;;;;;;;50.45;30.88;;;;;;;;;;5057043;28;20041;-78
2023/01/01 13:29:54;;;;;;;59.53;35.28;;;;;;;;;;5070126;28;20053;-78
2023/01/01 13:33:11;;;;;;;317.58;151.32;;;;;;;;;;5056677;28;20426;-79
2023/01/01 13:36:11;;;;;;;72.95;42.03;;;;;;;;;;5057033;28;20049;-78
2023/01/01 13:39:00;;;;;;;54.85;34.42;;;;;;;;;;5056792;28;20494;-79
2023/01/01 13:41:45;;;;;;;67.03;38.72;;;;;;;;;;5055007;28;20033;-78
2023/01/01 13:44:30;;;;;;;52.25;32.75;;;;;;;;;;5062589;28;20044;-80
2023/01/01 13:47:51;;;;;;;58.08;35.13;;;;;;;;;;5056442;28;20053;-79
2023/01/01 13:51:05;;;;;;;93.45;49.88;;;;;;;;;;5063088;28;20490;-80
2023/01/01 13:54:16;;;;;;;58.65;35.22;;;;;;;;;;5056404;28;20486;-79
2023/01/01 13:57:13;;;;;;;41.67;27.23;;;;;;;;;;5056651;28;20044;-79
2023/01/01 14:00:22;;;;;;;66.30;38.08;;;;;;;;;;5056539;28;20049;-79
2023/01/01 14:03:13;;;;;;;70.70;39.75;;;;;;;;;;5063336;28;20028;-79
2023/01/01 14:06:01;;;;;;;101.65;55.83;;;;;;;;;;5056309;28;20041;-80
2023/01/01 14:09:00;;;;;;;73.43;44.25;;;;;;;;;;5062978;28;20486;-80
2023/01/01 14:11:45;;;;;;;79.15;44.53;;;;;;;;;;5056148;28;20041;-80
2023/01/01 14:14:33;;;;;;;124.95;67.82;;;;;;;;;;5063046;28;20045;-78
2023/01/01 14:17:19;;;;;;;166.95;80.10;;;;;;;;;;5056192;28;20049;-80
2023/01/01 14:20:07;;;;;;;176.40;75.60;;;;;;;;;;5055696;28;20045;-80
2023/01/01 14:22:52;;;;;;;347.00;141.57;;;;;;;;;;5056034;28;20044;-79
2023/01/01 14:25:40;;;;;;;419.85;184.70;;;;;;;;;;5056177;28;20040;-80
2023/01/01 14:28:32;;;;;;;210.45;102.32;;;;;;;;;;5055996;28;20044;-80
2023/01/01 14:31:21;;;;;;;113.97;59.80;;;;;;;;;;5055666;28;20367;-78
2023/01/01 14:34:23;;;;;;;95.50;53.38;;;;;;;;;;5061368;28;20045;-80
2023/01/01 14:37:23;;;;;;;82.10;47.85;;;;;;;;;;5075746;28;20057;-80
2023/01/01 14:40:25;;;;;;;99.10;55.75;;;;;;;;;;5055613;28;20053;-79
2023/01/01 14:43:11;;;;;;;103.45;57.45;;;;;;;;;;5075518;28;20044;-78
2023/01/01 14:45:57;;;;;;;97.10;55.40;;;;;;;;;;5055504;28;20045;-78
2023/01/01 14:48:51;;;;;;;111.47;62.28;;;;;;;;;;5062551;28;20045;-78
2023/01/01 14:51:43;;;;;;;125.32;72.97;;;;;;;;;;5055748;28;20048;-79
2023/01/01 14:54:41;;;;;;;171.65;101.57;;;;;;;;;;5055460;28;20041;-79
2023/01/01 14:57:30;;;;;;;128.80;75.38;;;;;;;;;;5056033;28;20045;-78
2023/01/01 15:00:27;;;;;;;153.05;81.55;;;;;;;;;;5054965;28;20485;-80
2023/01/01 15:03:23;;;;;;;155.55;84.95;;;;;;;;;;5055506;28;20041;-80
2023/01/01 15:06:16;;;;;;;162.52;88.68;;;;;;;;;;5055686;28;20045;-81
2023/01/01 15:09:01;;;;;;;151.10;85.35;;;;;;;;;;5055211;28;20048;-79
2023/01/01 15:11:50;;;;;;;155.80;88.35;;;;;;;;;;5054978;28;20424;-80
2023/01/01 15:14:38;;;;;;;179.93;90.85;;;;;;;;;;5061741;28;20052;-79
2023/01/01 15:17:25;;;;;;;177.40;91.75;;;;;;;;;;5058920;28;20041;-81
2023/01/01 15:20:20;;;;;;;217.55;112.97;;;;;;;;;;5056960;28;20044;-85
2023/01/01 15:23:05;;;;;;;236.55;115.85;;;;;;;;;;5058718;28;20041;-83
2023/01/01 15:25:51;;;;;;;262.40;129.38;;;;;;;;;;5055072;28;20482;-84
2023/01/01 15:28:40;;;;;;;189.93;99.80;;;;;;;;;;5056632;28;20048;-85
2023/01/01 15:31:56;;;;;;;166.38;84.60;;;;;;;;;;5072893;28;20482;-80
2023/01/01 15:34:49;;;;;;;150.15;76.45;;;;;;;;;;5066593;28;20045;-84
2023/01/01 15:37:45;;;;;;;334.35;155.65;;;;;;;;;;5060170;28;20045;-79
2023/01/01 15:40:33;;;;;;;922.63;536.72;;;;;;;;;;5069347;28;20045;-80
2023/01/01 15:43:24;;;;;;;343.38;161.25;;;;;;;;;;5054750;28;20041;-81
2023/01/01 15:46:21;;;;;;;217.18;101.97;;;;;;;;;;5059797;28;20037;-84
2023/01/01 15:49:25;;;;;;;177.02;84.68;;;;;;;;;;5072944;28;20044;-84
2023/01/01 15:52:26;;;;;;;140.45;75.05;;;;;;;;;;5072672;28;20041;-84
2023/01/01 15:55:16;;;;;;;150.68;82.78;;;;;;;;;;5065022;28;20057;-84
2023/01/01 15:58:03;;;;;;;146.30;78.70;;;;;;;;;;5057492;28;20581;-82
2023/01/01 16:00:56;;;;;;;110.38;57.50;;;;;;;;;;5054287;28;20498;-84
2023/01/01 16:03:44;;;;;;;105.95;54.22;;;;;;;;;;5071578;28;20144;-83
2023/01/01 16:06:29;;;;;;;138.43;60.72;;;;;;;;;;5053393;28;20045;-83
2023/01/01 16:09:16;;;;;;;145.13;73.68;;;;;;;;;;5059670;28;20394;-83
2023/01/01 16:12:01;;;;;;;160.25;73.80;;;;;;;;;;5059197;28;20037;-83
2023/01/01 16:14:47;;;;;;;167.75;84.68;;;;;;;;;;5059229;28;20045;-83
2023/01/01 16:17:33;;;;;;;234.18;121.45;;;;;;;;;;5053828;28;20045;-83
2023/01/01 16:20:20;;;;;;;282.73;146.80;;;;;;;;;;5067164;28;20045;-81
2023/01/01 16:23:11;;;;;;;360.75;192.57;;;;;;;;;;5053679;28;20044;-81
2023/01/01 16:25:56;;;;;;;298.27;158.93;;;;;;;;;;5053650;28;20045;-82
2023/01/01 16:28:41;;;;;;;214.23;112.85;;;;;;;;;;5053900;28;20044;-82
2023/01/01 16:31:27;;;;;;;130.60;68.78;;;;;;;;;;5053672;28;20045;-82
2023/01/01 16:34:13;;;;;;;168.75;87.72;;;;;;;;;;5052683;28;20053;-84
2023/01/01 16:36:58;;;;;;;163.52;81.97;;;;;;;;;;5053726;28;20052;-83
2023/01/01 16:39:43;;;;;;;144.23;68.43;;;;;;;;;;5067199;28;20044;-82
2023/01/01 16:42:28;;;;;;;154.15;80.13;;;;;;;;;;5053381;28;20045;-83
2023/01/01 16:45:17;;;;;;;194.45;103.40;;;;;;;;;;5053519;28;20045;-82
2023/01/01 16:48:03;;;;;;;177.35;94.57;;;;;;;;;;5074373;28;20048;-81
2023/01/01 16:50:50;;;;;;;172.05;86.20;;;;;;;;;;5053563;28;20405;-83
2023/01/01 16:53:36;;;;;;;203.95;102.90;;;;;;;;;;5066109;28;20052;-85
2023/01/01 16:56:22;;;;;;;264.13;139.32;;;;;;;;;;5052341;28;20494;-85
2023/01/01 16:59:11;;;;;;;208.00;109.18;;;;;;;;;;5053933;28;20390;-81
2023/01/01 17:01:56;;;;;;;193.93;107.50;;;;;;;;;;5070462;28;20056;-84
2023/01/01 17:04:42;;;;;;;180.38;98.05;;;;;;;;;;5053293;28;20041;-85
2023/01/01 17:07:27;;;;;;;194.02;104.50;;;;;;;;;;5054100;28;20041;-85
2023/01/01 17:10:13;;;;;;;177.02;92.40;;;;;;;;;;5053765;28;20040;-82
2023/01/01 17:13:00;;;;;;;155.57;84.00;;;;;;;;;;5053892;28;20053;-82
2023/01/01 17:15:54;;;;;;;162.60;88.57;;;;;;;;;;5059260;28;20049;-82
2023/01/01 17:18:39;;;;;;;175.60;91.72;;;;;;;;;;5066300;28;20045;-82